sensor_id;sensor_type;location;lat;lon;timestamp;pressure;altitude;pressure_sealevel;temperature;humidity
16793;BME280;8513;42.662;23.350;2022-07-18T00:01:04;95630.97;;;21.26;35.64
16793;BME280;8513;42.662;23.350;2022-07-18T00:03:30;95631.31;;;21.03;36.60
16793;BME280;8513;42.662;23.350;2022-07-18T00:05:55;95634.75;;;20.83;37.02
16793;BME280;8513;42.662;23.350;2022-07-18T00:08:20;95618.53;;;20.98;35.82
16793;BME280;8513;42.662;23.350;2022-07-18T00:10:46;95630.94;;;21.12;35.55
16793;BME280;8513;42.662;23.350;2022-07-18T00:13:12;95622.88;;;20.99;35.94
16793;BME280;8513;42.662;23.350;2022-07-18T00:15:37;95630.50;;;21.02;35.72
16793;BME280;8513;42.662;23.350;2022-07-18T00:18:03;95626.34;;;20.80;36.20
16793;BME280;8513;42.662;23.350;2022-07-18T00:20:29;95626.94;;;20.82;36.12
16793;BME280;8513;42.662;23.350;2022-07-18T00:22:54;95627.50;;;20.70;36.29
16793;BME280;8513;42.662;23.350;2022-07-18T00:25:20;95625.69;;;20.78;35.96
16793;BME280;8513;42.662;23.350;2022-07-18T00:27:46;95623.47;;;20.88;35.61
16793;BME280;8513;42.662;23.350;2022-07-18T00:30:12;95621.41;;;20.83;35.53
16793;BME280;8513;42.662;23.350;2022-07-18T00:32:37;95619.31;;;20.72;35.68
16793;BME280;8513;42.662;23.350;2022-07-18T00:35:03;95625.06;;;20.69;35.52
16793;BME280;8513;42.662;23.350;2022-07-18T00:37:28;95620.06;;;20.59;35.49
16793;BME280;8513;42.662;23.350;2022-07-18T00:39:54;95620.22;;;20.51;35.57
16793;BME280;8513;42.662;23.350;2022-07-18T00:42:20;95623.88;;;20.50;35.74
16793;BME280;8513;42.662;23.350;2022-07-18T00:44:45;95611.38;;;20.51;35.43
16793;BME280;8513;42.662;23.350;2022-07-18T00:47:11;95620.41;;;20.49;35.56
16793;BME280;8513;42.662;23.350;2022-07-18T00:49:36;95621.56;;;20.34;35.71
16793;BME280;8513;42.662;23.350;2022-07-18T00:52:02;95618.72;;;20.42;35.32
16793;BME280;8513;42.662;23.350;2022-07-18T00:54:28;95625.91;;;20.35;35.25
16793;BME280;8513;42.662;23.350;2022-07-18T00:56:53;95620.56;;;20.41;35.28
16793;BME280;8513;42.662;23.350;2022-07-18T00:59:19;95621.78;;;20.32;35.16
16793;BME280;8513;42.662;23.350;2022-07-18T01:01:45;95622.16;;;20.29;35.15
16793;BME280;8513;42.662;23.350;2022-07-18T01:04:20;95626.66;;;20.28;35.25
16793;BME280;8513;42.662;23.350;2022-07-18T01:06:47;95621.97;;;20.31;35.06
16793;BME280;8513;42.662;23.350;2022-07-18T01:09:14;95629.13;;;20.23;35.41
16793;BME280;8513;42.662;23.350;2022-07-18T01:11:41;95629.25;;;20.15;35.09
16793;BME280;8513;42.662;23.350;2022-07-18T01:14:07;95630.09;;;20.16;35.09
16793;BME280;8513;42.662;23.350;2022-07-18T01:16:34;95627.19;;;20.11;35.10
16793;BME280;8513;42.662;23.350;2022-07-18T01:18:59;95627.69;;;20.21;34.56
16793;BME280;8513;42.662;23.350;2022-07-18T01:21:25;95619.59;;;20.14;34.68
16793;BME280;8513;42.662;23.350;2022-07-18T01:23:51;95611.72;;;19.99;34.91
16793;BME280;8513;42.662;23.350;2022-07-18T01:26:17;95617.88;;;20.00;34.89
16793;BME280;8513;42.662;23.350;2022-07-18T01:28:43;95620.59;;;20.07;34.69
16793;BME280;8513;42.662;23.350;2022-07-18T01:31:09;95629.16;;;20.02;34.57
16793;BME280;8513;42.662;23.350;2022-07-18T01:33:35;95631.84;;;20.02;34.23
16793;BME280;8513;42.662;23.350;2022-07-18T01:36:03;95628.31;;;19.95;34.39
16793;BME280;8513;42.662;23.350;2022-07-18T01:38:30;95615.81;;;20.02;33.98
16793;BME280;8513;42.662;23.350;2022-07-18T01:40:58;95616.09;;;19.79;34.59
16793;BME280;8513;42.662;23.350;2022-07-18T01:43:24;95607.59;;;19.69;34.59
16793;BME280;8513;42.662;23.350;2022-07-18T01:45:49;95612.16;;;19.75;34.29
16793;BME280;8513;42.662;23.350;2022-07-18T01:48:15;95606.81;;;19.75;34.35
16793;BME280;8513;42.662;23.350;2022-07-18T01:50:41;95606.78;;;19.68;34.31
16793;BME280;8513;42.662;23.350;2022-07-18T01:53:06;95610.44;;;19.67;34.31
16793;BME280;8513;42.662;23.350;2022-07-18T01:55:32;95607.31;;;19.64;34.22
16793;BME280;8513;42.662;23.350;2022-07-18T01:57:57;95603.84;;;19.63;34.26
16793;BME280;8513;42.662;23.350;2022-07-18T02:00:23;95608.16;;;19.64;34.27
16793;BME280;8513;42.662;23.350;2022-07-18T02:02:48;95603.66;;;19.65;34.33
16793;BME280;8513;42.662;23.350;2022-07-18T02:05:14;95607.53;;;19.62;34.75
16793;BME280;8513;42.662;23.350;2022-07-18T02:07:41;95603.59;;;19.58;34.62
16793;BME280;8513;42.662;23.350;2022-07-18T02:10:11;95605.09;;;19.39;35.36
16793;BME280;8513;42.662;23.350;2022-07-18T02:12:37;95617.34;;;19.33;36.28
16793;BME280;8513;42.662;23.350;2022-07-18T02:15:05;95615.31;;;19.35;35.56
16793;BME280;8513;42.662;23.350;2022-07-18T02:17:33;95620.13;;;19.47;35.03
16793;BME280;8513;42.662;23.350;2022-07-18T02:19:58;95621.59;;;19.49;34.95
16793;BME280;8513;42.662;23.350;2022-07-18T02:22:24;95614.00;;;19.53;34.95
16793;BME280;8513;42.662;23.350;2022-07-18T02:24:50;95612.75;;;19.49;34.78
16793;BME280;8513;42.662;23.350;2022-07-18T02:27:16;95613.25;;;19.37;35.12
16793;BME280;8513;42.662;23.350;2022-07-18T02:29:41;95616.56;;;19.39;34.97
16793;BME280;8513;42.662;23.350;2022-07-18T02:32:07;95615.75;;;19.17;35.59
16793;BME280;8513;42.662;23.350;2022-07-18T02:34:32;95625.25;;;19.05;36.66
16793;BME280;8513;42.662;23.350;2022-07-18T02:36:58;95628.56;;;19.07;36.10
16793;BME280;8513;42.662;23.350;2022-07-18T02:39:24;95630.97;;;19.02;36.50
16793;BME280;8513;42.662;23.350;2022-07-18T02:41:49;95633.19;;;18.99;36.84
16793;BME280;8513;42.662;23.350;2022-07-18T02:44:15;95627.50;;;19.02;35.96
16793;BME280;8513;42.662;23.350;2022-07-18T02:46:41;95643.16;;;18.90;36.69
16793;BME280;8513;42.662;23.350;2022-07-18T02:49:06;95649.63;;;18.66;36.71
16793;BME280;8513;42.662;23.350;2022-07-18T02:51:32;95642.63;;;18.80;37.03
16793;BME280;8513;42.662;23.350;2022-07-18T02:53:57;95646.16;;;18.87;36.89
16793;BME280;8513;42.662;23.350;2022-07-18T02:56:23;95643.50;;;18.87;36.23
16793;BME280;8513;42.662;23.350;2022-07-18T02:58:48;95632.69;;;18.88;36.13
16793;BME280;8513;42.662;23.350;2022-07-18T03:01:14;95642.56;;;18.94;35.80
16793;BME280;8513;42.662;23.350;2022-07-18T03:03:39;95643.88;;;18.99;35.49
16793;BME280;8513;42.662;23.350;2022-07-18T03:06:05;95648.16;;;19.00;35.27
16793;BME280;8513;42.662;23.350;2022-07-18T03:08:30;95645.88;;;18.97;34.88
16793;BME280;8513;42.662;23.350;2022-07-18T03:10:55;95649.47;;;18.89;35.17
16793;BME280;8513;42.662;23.350;2022-07-18T03:13:21;95643.97;;;18.90;34.47
16793;BME280;8513;42.662;23.350;2022-07-18T03:15:46;95644.34;;;18.87;34.53
16793;BME280;8513;42.662;23.350;2022-07-18T03:18:12;95642.50;;;18.88;34.23
16793;BME280;8513;42.662;23.350;2022-07-18T03:20:38;95647.56;;;18.83;34.29
16793;BME280;8513;42.662;23.350;2022-07-18T03:23:07;95652.50;;;18.71;34.23
16793;BME280;8513;42.662;23.350;2022-07-18T03:25:33;95649.22;;;18.69;34.46
16793;BME280;8513;42.662;23.350;2022-07-18T03:27:59;95654.19;;;18.72;33.96
16793;BME280;8513;42.662;23.350;2022-07-18T03:30:24;95644.47;;;18.79;33.94
16793;BME280;8513;42.662;23.350;2022-07-18T03:32:50;95647.03;;;18.87;33.51
16793;BME280;8513;42.662;23.350;2022-07-18T03:35:16;95648.56;;;18.82;33.43
16793;BME280;8513;42.662;23.350;2022-07-18T03:37:41;95648.13;;;18.78;33.61
16793;BME280;8513;42.662;23.350;2022-07-18T03:40:08;95646.13;;;18.80;33.69
16793;BME280;8513;42.662;23.350;2022-07-18T03:42:37;95654.47;;;18.77;33.58
16793;BME280;8513;42.662;23.350;2022-07-18T03:45:03;95654.47;;;18.77;34.00
16793;BME280;8513;42.662;23.350;2022-07-18T03:47:29;95652.47;;;18.79;33.63
16793;BME280;8513;42.662;23.350;2022-07-18T03:49:54;95654.75;;;18.82;33.63
16793;BME280;8513;42.662;23.350;2022-07-18T03:52:19;95657.16;;;18.77;33.88
16793;BME280;8513;42.662;23.350;2022-07-18T03:54:45;95657.69;;;18.87;34.08
16793;BME280;8513;42.662;23.350;2022-07-18T03:57:11;95651.06;;;18.83;34.37
16793;BME280;8513;42.662;23.350;2022-07-18T03:59:36;95653.38;;;18.71;34.92
16793;BME280;8513;42.662;23.350;2022-07-18T04:02:02;95660.25;;;18.81;34.28
16793;BME280;8513;42.662;23.350;2022-07-18T04:04:27;95670.25;;;18.79;35.26
16793;BME280;8513;42.662;23.350;2022-07-18T04:06:53;95668.25;;;18.66;36.21
16793;BME280;8513;42.662;23.350;2022-07-18T04:09:19;95668.31;;;18.72;35.94
16793;BME280;8513;42.662;23.350;2022-07-18T04:11:44;95662.47;;;18.62;36.63
16793;BME280;8513;42.662;23.350;2022-07-18T04:14:09;95667.69;;;18.70;36.55
16793;BME280;8513;42.662;23.350;2022-07-18T04:16:35;95673.00;;;18.70;37.12
16793;BME280;8513;42.662;23.350;2022-07-18T04:19:00;95671.91;;;18.65;37.32
16793;BME280;8513;42.662;23.350;2022-07-18T04:21:26;95661.34;;;18.71;37.35
16793;BME280;8513;42.662;23.350;2022-07-18T04:23:51;95661.97;;;18.88;35.85
16793;BME280;8513;42.662;23.350;2022-07-18T04:26:18;95657.75;;;18.94;35.27
16793;BME280;8513;42.662;23.350;2022-07-18T04:28:43;95665.97;;;19.14;34.66
16793;BME280;8513;42.662;23.350;2022-07-18T04:31:09;95656.31;;;19.13;34.64
16793;BME280;8513;42.662;23.350;2022-07-18T04:33:34;95652.66;;;19.14;34.41
16793;BME280;8513;42.662;23.350;2022-07-18T04:36:00;95644.25;;;19.38;34.13
16793;BME280;8513;42.662;23.350;2022-07-18T04:38:25;95656.44;;;19.69;33.90
16793;BME280;8513;42.662;23.350;2022-07-18T04:40:51;95653.06;;;19.60;33.68
16793;BME280;8513;42.662;23.350;2022-07-18T04:43:16;95645.97;;;19.46;33.74
16793;BME280;8513;42.662;23.350;2022-07-18T04:45:41;95641.91;;;19.50;33.56
16793;BME280;8513;42.662;23.350;2022-07-18T04:48:07;95644.81;;;19.55;32.50
16793;BME280;8513;42.662;23.350;2022-07-18T04:50:32;95641.56;;;19.60;33.03
16793;BME280;8513;42.662;23.350;2022-07-18T04:52:58;95641.91;;;19.50;33.12
16793;BME280;8513;42.662;23.350;2022-07-18T04:55:25;95649.84;;;19.44;33.82
16793;BME280;8513;42.662;23.350;2022-07-18T04:57:51;95642.09;;;19.49;35.27
16793;BME280;8513;42.662;23.350;2022-07-18T05:00:20;95648.91;;;19.51;36.02
16793;BME280;8513;42.662;23.350;2022-07-18T05:02:48;95651.50;;;19.45;36.82
16793;BME280;8513;42.662;23.350;2022-07-18T05:05:15;95647.63;;;19.47;36.88
16793;BME280;8513;42.662;23.350;2022-07-18T05:07:42;95646.53;;;19.63;36.03
16793;BME280;8513;42.662;23.350;2022-07-18T05:10:10;95648.44;;;19.69;34.63
16793;BME280;8513;42.662;23.350;2022-07-18T05:12:37;95650.66;;;19.66;35.23
16793;BME280;8513;42.662;23.350;2022-07-18T05:15:07;95650.72;;;19.72;34.65
16793;BME280;8513;42.662;23.350;2022-07-18T05:17:33;95646.66;;;19.76;33.66
16793;BME280;8513;42.662;23.350;2022-07-18T05:19:59;95652.44;;;19.80;34.21
16793;BME280;8513;42.662;23.350;2022-07-18T05:22:24;95652.13;;;19.96;33.94
16793;BME280;8513;42.662;23.350;2022-07-18T05:24:50;95653.28;;;20.15;34.14
16793;BME280;8513;42.662;23.350;2022-07-18T05:27:16;95658.25;;;20.53;32.53
16793;BME280;8513;42.662;23.350;2022-07-18T05:29:41;95655.69;;;20.66;31.48
16793;BME280;8513;42.662;23.350;2022-07-18T05:32:07;95659.00;;;20.40;31.61
16793;BME280;8513;42.662;23.350;2022-07-18T05:34:33;95660.22;;;20.38;31.58
16793;BME280;8513;42.662;23.350;2022-07-18T05:36:59;95653.38;;;20.28;31.52
16793;BME280;8513;42.662;23.350;2022-07-18T05:39:24;95655.38;;;20.20;31.62
16793;BME280;8513;42.662;23.350;2022-07-18T05:41:50;95663.06;;;20.30;31.45
16793;BME280;8513;42.662;23.350;2022-07-18T05:44:15;95660.22;;;20.38;31.41
16793;BME280;8513;42.662;23.350;2022-07-18T05:46:41;95655.75;;;20.45;32.02
16793;BME280;8513;42.662;23.350;2022-07-18T05:49:06;95657.63;;;20.51;33.33
16793;BME280;8513;42.662;23.350;2022-07-18T05:51:32;95656.34;;;20.47;33.47
16793;BME280;8513;42.662;23.350;2022-07-18T05:53:57;95659.66;;;20.49;32.89
16793;BME280;8513;42.662;23.350;2022-07-18T05:56:23;95661.78;;;20.54;32.09
16793;BME280;8513;42.662;23.350;2022-07-18T05:58:48;95659.09;;;20.54;32.30
16793;BME280;8513;42.662;23.350;2022-07-18T06:01:14;95660.75;;;20.55;31.89
16793;BME280;8513;42.662;23.350;2022-07-18T06:03:45;95659.13;;;20.60;31.30
16793;BME280;8513;42.662;23.350;2022-07-18T06:06:11;95663.22;;;20.56;30.67
16793;BME280;8513;42.662;23.350;2022-07-18T06:08:36;95663.22;;;20.56;30.94
16793;BME280;8513;42.662;23.350;2022-07-18T06:11:02;95663.06;;;20.64;31.01
16793;BME280;8513;42.662;23.350;2022-07-18T06:13:29;95653.00;;;20.73;30.74
16793;BME280;8513;42.662;23.350;2022-07-18T06:15:55;95663.34;;;20.83;30.11
16793;BME280;8513;42.662;23.350;2022-07-18T06:18:20;95661.91;;;20.87;30.08
16793;BME280;8513;42.662;23.350;2022-07-18T06:20:46;95654.28;;;20.84;30.49
16793;BME280;8513;42.662;23.350;2022-07-18T06:23:11;95651.22;;;20.87;29.71
16793;BME280;8513;42.662;23.350;2022-07-18T06:25:36;95654.88;;;20.79;28.61
16793;BME280;8513;42.662;23.350;2022-07-18T06:28:02;95656.97;;;20.84;28.18
16793;BME280;8513;42.662;23.350;2022-07-18T06:30:27;95654.91;;;20.86;28.00
16793;BME280;8513;42.662;23.350;2022-07-18T06:32:53;95650.03;;;20.96;27.76
16793;BME280;8513;42.662;23.350;2022-07-18T06:35:18;95648.34;;;20.95;27.67
16793;BME280;8513;42.662;23.350;2022-07-18T06:37:44;95642.41;;;20.93;27.75
16793;BME280;8513;42.662;23.350;2022-07-18T06:40:09;95645.91;;;21.00;27.92
16793;BME280;8513;42.662;23.350;2022-07-18T06:42:35;95643.25;;;21.00;28.27
16793;BME280;8513;42.662;23.350;2022-07-18T06:45:00;95645.31;;;21.05;28.46
16793;BME280;8513;42.662;23.350;2022-07-18T06:47:26;95645.94;;;21.13;28.55
16793;BME280;8513;42.662;23.350;2022-07-18T06:49:51;95641.59;;;21.06;27.87
16793;BME280;8513;42.662;23.350;2022-07-18T06:52:17;95637.09;;;21.13;26.50
16793;BME280;8513;42.662;23.350;2022-07-18T06:54:42;95637.09;;;21.20;26.95
16793;BME280;8513;42.662;23.350;2022-07-18T06:57:08;95634.06;;;21.23;26.60
16793;BME280;8513;42.662;23.350;2022-07-18T06:59:34;95632.19;;;21.30;26.66
16793;BME280;8513;42.662;23.350;2022-07-18T07:02:00;95621.94;;;21.33;26.44
16793;BME280;8513;42.662;23.350;2022-07-18T07:04:25;95625.00;;;21.30;26.67
16793;BME280;8513;42.662;23.350;2022-07-18T07:06:51;95623.63;;;21.41;27.48
16793;BME280;8513;42.662;23.350;2022-07-18T07:09:16;95618.22;;;21.34;26.04
16793;BME280;8513;42.662;23.350;2022-07-18T07:11:42;95627.13;;;21.42;25.90
16793;BME280;8513;42.662;23.350;2022-07-18T07:14:07;95630.78;;;21.34;25.97
16793;BME280;8513;42.662;23.350;2022-07-18T07:16:33;95625.44;;;21.41;25.57
16793;BME280;8513;42.662;23.350;2022-07-18T07:18:58;95622.34;;;21.37;24.68
16793;BME280;8513;42.662;23.350;2022-07-18T07:21:24;95617.84;;;21.44;24.79
16793;BME280;8513;42.662;23.350;2022-07-18T07:23:49;95622.16;;;21.45;25.06
16793;BME280;8513;42.662;23.350;2022-07-18T07:26:14;95615.78;;;21.46;25.40
16793;BME280;8513;42.662;23.350;2022-07-18T07:28:40;95620.94;;;21.48;25.81
16793;BME280;8513;42.662;23.350;2022-07-18T07:31:05;95624.44;;;21.62;25.39
16793;BME280;8513;42.662;23.350;2022-07-18T07:33:31;95619.28;;;21.67;25.61
16793;BME280;8513;42.662;23.350;2022-07-18T07:35:56;95627.72;;;21.77;24.02
16793;BME280;8513;42.662;23.350;2022-07-18T07:38:22;95625.69;;;21.79;24.56
16793;BME280;8513;42.662;23.350;2022-07-18T07:40:53;95623.22;;;21.84;24.47
16793;BME280;8513;42.662;23.350;2022-07-18T07:43:18;95628.16;;;21.87;25.27
16793;BME280;8513;42.662;23.350;2022-07-18T07:45:49;95630.00;;;21.93;24.77
16793;BME280;8513;42.662;23.350;2022-07-18T07:48:16;95615.16;;;21.91;25.26
16793;BME280;8513;42.662;23.350;2022-07-18T07:50:41;95615.34;;;21.96;25.44
16793;BME280;8513;42.662;23.350;2022-07-18T07:53:07;95626.44;;;22.13;25.33
16793;BME280;8513;42.662;23.350;2022-07-18T07:55:33;95627.06;;;22.15;24.79
16793;BME280;8513;42.662;23.350;2022-07-18T07:57:59;95624.81;;;22.18;24.90
16793;BME280;8513;42.662;23.350;2022-07-18T08:00:24;95626.03;;;22.16;24.54
16793;BME280;8513;42.662;23.350;2022-07-18T08:02:58;95633.50;;;22.00;24.22
16793;BME280;8513;42.662;23.350;2022-07-18T08:05:24;95618.63;;;22.11;24.44
16793;BME280;8513;42.662;23.350;2022-07-18T08:07:49;95631.59;;;22.41;25.13
16793;BME280;8513;42.662;23.350;2022-07-18T08:10:16;95626.44;;;22.26;25.04
16793;BME280;8513;42.662;23.350;2022-07-18T08:12:41;95630.19;;;22.25;23.93
16793;BME280;8513;42.662;23.350;2022-07-18T08:15:07;95629.72;;;22.41;25.40
16793;BME280;8513;42.662;23.350;2022-07-18T08:17:33;95631.78;;;22.39;24.92
16793;BME280;8513;42.662;23.350;2022-07-18T08:19:59;95631.38;;;22.29;24.19
16793;BME280;8513;42.662;23.350;2022-07-18T08:22:24;95628.91;;;22.34;23.70
16793;BME280;8513;42.662;23.350;2022-07-18T08:24:50;95627.66;;;22.43;23.74
16793;BME280;8513;42.662;23.350;2022-07-18T08:27:16;95626.63;;;22.44;23.86
16793;BME280;8513;42.662;23.350;2022-07-18T08:29:41;95626.84;;;22.43;22.92
16793;BME280;8513;42.662;23.350;2022-07-18T08:32:07;95635.66;;;22.50;23.58
16793;BME280;8513;42.662;23.350;2022-07-18T08:34:33;95635.44;;;22.58;23.98
16793;BME280;8513;42.662;23.350;2022-07-18T08:36:58;95625.94;;;22.62;23.67
16793;BME280;8513;42.662;23.350;2022-07-18T08:39:24;95629.72;;;22.48;23.91
16793;BME280;8513;42.662;23.350;2022-07-18T08:41:50;95626.56;;;22.58;24.71
16793;BME280;8513;42.662;23.350;2022-07-18T08:44:17;95632.13;;;22.63;25.37
16793;BME280;8513;42.662;23.350;2022-07-18T08:46:50;95630.25;;;22.70;24.75
16793;BME280;8513;42.662;23.350;2022-07-18T08:49:16;95629.38;;;22.83;24.46
16793;BME280;8513;42.662;23.350;2022-07-18T08:51:45;95627.50;;;22.83;25.12
16793;BME280;8513;42.662;23.350;2022-07-18T08:54:10;95629.16;;;22.84;24.95
16793;BME280;8513;42.662;23.350;2022-07-18T08:56:36;95624.22;;;22.81;25.06
16793;BME280;8513;42.662;23.350;2022-07-18T08:59:02;95621.47;;;22.95;25.61
16793;BME280;8513;42.662;23.350;2022-07-18T09:01:31;95629.91;;;23.05;25.18
16793;BME280;8513;42.662;23.350;2022-07-18T09:03:57;95617.16;;;22.94;25.05
16793;BME280;8513;42.662;23.350;2022-07-18T09:09:11;95619.22;;;22.92;24.94
16793;BME280;8513;42.662;23.350;2022-07-18T09:11:49;95622.88;;;23.10;24.50
16793;BME280;8513;42.662;23.350;2022-07-18T09:14:36;95616.19;;;23.20;24.96
16793;BME280;8513;42.662;23.350;2022-07-18T09:19:32;95619.47;;;23.22;24.65
16793;BME280;8513;42.662;23.350;2022-07-18T09:22:13;95626.53;;;23.16;24.17
16793;BME280;8513;42.662;23.350;2022-07-18T09:27:35;95624.22;;;23.26;24.74
16793;BME280;8513;42.662;23.350;2022-07-18T09:32:34;95619.47;;;23.28;25.02
16793;BME280;8513;42.662;23.350;2022-07-18T09:35:09;95624.75;;;23.42;24.98
16793;BME280;8513;42.662;23.350;2022-07-18T09:37:35;95625.03;;;23.59;25.01
16793;BME280;8513;42.662;23.350;2022-07-18T09:42:48;95623.25;;;23.77;25.20
16793;BME280;8513;42.662;23.350;2022-07-18T09:45:14;95626.03;;;23.89;25.17
16793;BME280;8513;42.662;23.350;2022-07-18T09:47:57;95617.69;;;23.97;24.26
16793;BME280;8513;42.662;23.350;2022-07-18T09:50:38;95611.78;;;24.14;24.42
16793;BME280;8513;42.662;23.350;2022-07-18T09:53:14;95607.22;;;24.14;24.30
16793;BME280;8513;42.662;23.350;2022-07-18T09:55:51;95611.47;;;24.22;23.96
16793;BME280;8513;42.662;23.350;2022-07-18T09:58:23;95613.09;;;24.23;24.28
16793;BME280;8513;42.662;23.350;2022-07-18T10:00:51;95611.56;;;24.34;23.76
16793;BME280;8513;42.662;23.350;2022-07-18T10:03:18;95608.97;;;24.46;24.25
16793;BME280;8513;42.662;23.350;2022-07-18T10:05:45;95606.41;;;24.51;25.24
16793;BME280;8513;42.662;23.350;2022-07-18T10:08:13;95608.56;;;24.79;23.89
16793;BME280;8513;42.662;23.350;2022-07-18T10:10:41;95607.34;;;24.93;24.38
16793;BME280;8513;42.662;23.350;2022-07-18T10:13:07;95594.50;;;24.95;24.18
16793;BME280;8513;42.662;23.350;2022-07-18T10:15:35;95602.09;;;25.17;24.19
16793;BME280;8513;42.662;23.350;2022-07-18T10:18:02;95597.13;;;25.44;25.22
16793;BME280;8513;42.662;23.350;2022-07-18T10:20:35;95583.72;;;25.56;24.05
16793;BME280;8513;42.662;23.350;2022-07-18T10:23:09;95594.34;;;25.50;23.58
16793;BME280;8513;42.662;23.350;2022-07-18T10:25:36;95584.66;;;25.61;24.14
16793;BME280;8513;42.662;23.350;2022-07-18T10:28:08;95574.56;;;25.57;23.37
16793;BME280;8513;42.662;23.350;2022-07-18T10:30:37;95573.28;;;25.59;23.21
16793;BME280;8513;42.662;23.350;2022-07-18T10:33:04;95582.44;;;25.70;22.88
16793;BME280;8513;42.662;23.350;2022-07-18T10:36:04;95584.91;;;25.83;23.79
16793;BME280;8513;42.662;23.350;2022-07-18T10:38:30;95573.81;;;25.91;23.33
16793;BME280;8513;42.662;23.350;2022-07-18T10:41:24;95570.66;;;26.06;23.24
16793;BME280;8513;42.662;23.350;2022-07-18T10:43:50;95569.78;;;26.29;23.47
16793;BME280;8513;42.662;23.350;2022-07-18T10:46:15;95569.41;;;26.49;23.33
16793;BME280;8513;42.662;23.350;2022-07-18T10:51:13;95568.69;;;26.66;23.85
16793;BME280;8513;42.662;23.350;2022-07-18T10:56:19;95563.94;;;26.84;23.57
16793;BME280;8513;42.662;23.350;2022-07-18T10:58:44;95559.13;;;26.87;23.04
16793;BME280;8513;42.662;23.350;2022-07-18T11:01:16;95552.25;;;26.79;22.97
16793;BME280;8513;42.662;23.350;2022-07-18T11:03:42;95548.94;;;26.77;22.32
16793;BME280;8513;42.662;23.350;2022-07-18T11:06:08;95552.13;;;26.74;22.46
16793;BME280;8513;42.662;23.350;2022-07-18T11:08:33;95550.81;;;27.05;23.15
16793;BME280;8513;42.662;23.350;2022-07-18T11:16:00;95532.84;;;27.56;21.87
16793;BME280;8513;42.662;23.350;2022-07-18T11:21:31;95544.72;;;27.89;20.91
16793;BME280;8513;42.662;23.350;2022-07-18T11:26:30;95544.75;;;27.77;22.00
16793;BME280;8513;42.662;23.350;2022-07-18T11:29:07;95547.63;;;28.04;22.77
16793;BME280;8513;42.662;23.350;2022-07-18T11:31:51;95546.22;;;28.19;20.88
16793;BME280;8513;42.662;23.350;2022-07-18T11:34:17;95544.53;;;27.96;22.66
16793;BME280;8513;42.662;23.350;2022-07-18T11:36:45;95537.22;;;27.79;21.28
16793;BME280;8513;42.662;23.350;2022-07-18T11:39:12;95528.78;;;28.09;22.11
16793;BME280;8513;42.662;23.350;2022-07-18T11:41:39;95538.38;;;28.39;21.71
16793;BME280;8513;42.662;23.350;2022-07-18T11:44:06;95530.28;;;28.00;19.66
16793;BME280;8513;42.662;23.350;2022-07-18T11:46:40;95531.00;;;27.79;20.61
16793;BME280;8513;42.662;23.350;2022-07-18T11:49:06;95528.06;;;27.97;19.73
16793;BME280;8513;42.662;23.350;2022-07-18T11:51:40;95527.09;;;28.25;18.73
16793;BME280;8513;42.662;23.350;2022-07-18T11:54:06;95532.09;;;28.55;19.17
16793;BME280;8513;42.662;23.350;2022-07-18T11:56:32;95521.94;;;28.68;18.98
16793;BME280;8513;42.662;23.350;2022-07-18T11:58:57;95517.75;;;28.77;17.66
16793;BME280;8513;42.662;23.350;2022-07-18T12:01:30;95518.56;;;28.77;18.06
16793;BME280;8513;42.662;23.350;2022-07-18T12:03:57;95515.09;;;28.82;19.08
16793;BME280;8513;42.662;23.350;2022-07-18T12:06:24;95512.03;;;29.00;18.19
16793;BME280;8513;42.662;23.350;2022-07-18T12:08:54;95509.28;;;28.73;18.93
16793;BME280;8513;42.662;23.350;2022-07-18T12:14:13;95498.88;;;29.09;19.20
16793;BME280;8513;42.662;23.350;2022-07-18T12:16:46;95495.94;;;29.48;19.15
16793;BME280;8513;42.662;23.350;2022-07-18T12:19:18;95493.91;;;29.28;19.76
16793;BME280;8513;42.662;23.350;2022-07-18T12:32:48;95493.13;;;29.33;21.52
16793;BME280;8513;42.662;23.350;2022-07-18T12:35:30;95476.88;;;29.06;22.01
16793;BME280;8513;42.662;23.350;2022-07-18T12:40:56;95493.41;;;29.04;21.95
16793;BME280;8513;42.662;23.350;2022-07-18T12:43:35;95493.59;;;29.57;22.35
16793;BME280;8513;42.662;23.350;2022-07-18T12:46:06;95473.44;;;29.48;21.93
16793;BME280;8513;42.662;23.350;2022-07-18T12:48:33;95477.81;;;29.54;22.03
16793;BME280;8513;42.662;23.350;2022-07-18T12:51:01;95481.41;;;30.02;21.74
16793;BME280;8513;42.662;23.350;2022-07-18T12:53:36;95480.41;;;30.13;21.52
16793;BME280;8513;42.662;23.350;2022-07-18T12:56:02;95482.91;;;30.25;20.54
16793;BME280;8513;42.662;23.350;2022-07-18T12:58:28;95478.94;;;30.43;20.22
16793;BME280;8513;42.662;23.350;2022-07-18T13:00:53;95479.41;;;30.24;19.79
16793;BME280;8513;42.662;23.350;2022-07-18T13:03:21;95481.91;;;30.46;20.51
16793;BME280;8513;42.662;23.350;2022-07-18T13:05:47;95475.53;;;30.83;20.75
16793;BME280;8513;42.662;23.350;2022-07-18T13:08:12;95473.09;;;30.87;21.00
16793;BME280;8513;42.662;23.350;2022-07-18T13:10:39;95475.34;;;31.26;20.38
16793;BME280;8513;42.662;23.350;2022-07-18T13:13:06;95477.00;;;31.57;19.01
16793;BME280;8513;42.662;23.350;2022-07-18T13:15:32;95468.78;;;31.73;18.72
16793;BME280;8513;42.662;23.350;2022-07-18T13:17:58;95466.88;;;31.99;18.26
16793;BME280;8513;42.662;23.350;2022-07-18T13:20:23;95463.91;;;31.95;18.83
16793;BME280;8513;42.662;23.350;2022-07-18T13:22:49;95468.03;;;31.47;19.42
16793;BME280;8513;42.662;23.350;2022-07-18T13:25:14;95468.53;;;31.49;18.90
16793;BME280;8513;42.662;23.350;2022-07-18T13:27:40;95466.38;;;31.20;19.48
16793;BME280;8513;42.662;23.350;2022-07-18T13:30:07;95465.50;;;30.16;20.80
16793;BME280;8513;42.662;23.350;2022-07-18T13:32:34;95471.69;;;30.79;20.90
16793;BME280;8513;42.662;23.350;2022-07-18T13:34:59;95475.63;;;31.60;18.77
16793;BME280;8513;42.662;23.350;2022-07-18T13:37:25;95469.34;;;31.95;18.04
16793;BME280;8513;42.662;23.350;2022-07-18T13:39:51;95467.19;;;31.31;18.80
16793;BME280;8513;42.662;23.350;2022-07-18T13:42:16;95456.88;;;31.53;19.13
16793;BME280;8513;42.662;23.350;2022-07-18T13:44:42;95464.41;;;30.90;19.75